createdAt,value
2023-03-28T00:02:41.783Z,47.05
2023-03-28T00:05:44.903Z,47.02
2023-03-28T00:08:51.189Z,47.02
2023-03-28T00:11:54.132Z,46.99
2023-03-28T00:14:57.551Z,47.09
2023-03-28T00:18:01.746Z,47.01
2023-03-28T00:21:07.984Z,47.07
2023-03-28T00:24:13.943Z,47.06
2023-03-28T00:27:17.797Z,46.99
2023-03-28T00:30:20.924Z,47.04
2023-03-28T00:33:25.036Z,47.07
2023-03-28T00:36:29.231Z,47.08
2023-03-28T00:39:34.526Z,47.04
2023-03-28T00:42:42.745Z,47.10
2023-03-28T00:45:55.940Z,47.08
2023-03-28T00:49:12.316Z,47.03
2023-03-28T00:52:18.032Z,47.05
2023-03-28T00:55:25.814Z,46.98
2023-03-28T00:58:33.367Z,46.99
2023-03-28T01:01:37.072Z,46.91
2023-03-28T01:04:46.556Z,46.75
2023-03-28T01:07:54.544Z,46.80
2023-03-28T01:11:00.832Z,46.70
2023-03-28T01:14:07.134Z,46.78
2023-03-28T01:17:10.847Z,46.74
2023-03-28T01:20:29.249Z,46.82
2023-03-28T01:24:11.659Z,46.80
2023-03-28T01:27:24.402Z,46.82
2023-03-28T01:30:48.823Z,46.87
2023-03-28T01:34:37.757Z,46.84
2023-03-28T01:37:48.939Z,46.86
2023-03-28T01:41:00.595Z,46.73
2023-03-28T01:44:14.150Z,46.84
2023-03-28T01:47:23.859Z,46.58
2023-03-28T01:50:31.931Z,46.59
2023-03-28T01:53:44.173Z,46.68
2023-03-28T01:56:53.257Z,46.66
2023-03-28T02:00:13.069Z,46.55
2023-03-28T02:03:37.631Z,46.62
2023-03-28T02:06:52.692Z,46.63
2023-03-28T02:10:04.733Z,46.66
2023-03-28T02:13:36.335Z,46.70
2023-03-28T02:17:04.777Z,46.67
2023-03-28T02:20:38.671Z,46.72
2023-03-28T02:23:46.619Z,46.69
2023-03-28T02:27:09.579Z,46.74
2023-03-28T02:30:33.089Z,46.70
2023-03-28T02:33:41.549Z,46.73
2023-03-28T02:36:49.782Z,46.70
2023-03-28T02:40:07.230Z,46.64
2023-03-28T02:43:44.848Z,46.63
2023-03-28T02:46:56.589Z,46.76
2023-03-28T02:50:11.150Z,46.65
2023-03-28T02:53:22.245Z,46.83
2023-03-28T02:56:32.874Z,46.71
2023-03-28T02:59:47.569Z,46.63
2023-03-28T03:02:52.680Z,46.61
2023-03-28T03:05:58.108Z,46.55
2023-03-28T03:12:04.564Z,46.35
2023-03-28T03:15:10.624Z,46.21
2023-03-28T03:18:34.911Z,46.11
2023-03-28T03:21:38.177Z,45.99
2023-03-28T03:24:41.126Z,46.07
2023-03-28T03:27:44.311Z,46.04
2023-03-28T03:30:49.510Z,46.00
2023-03-28T03:33:58.279Z,46.02
2023-03-28T03:37:05.786Z,45.92
2023-03-28T03:40:10.343Z,45.93
2023-03-28T03:43:16.411Z,45.94
2023-03-28T03:46:22.156Z,45.87
2023-03-28T03:49:27.052Z,45.93
2023-03-28T03:52:30.071Z,46.02
2023-03-28T03:55:33.536Z,45.87
2023-03-28T03:58:36.509Z,45.71
2023-03-28T04:01:45.184Z,45.81
2023-03-28T04:05:00.507Z,45.81
2023-03-28T04:08:16.888Z,45.86
2023-03-28T04:11:19.832Z,45.78
2023-03-28T04:14:23.214Z,45.85
2023-03-28T04:17:34.784Z,45.91
2023-03-28T04:20:43.379Z,45.76
2023-03-28T04:23:48.427Z,45.86
2023-03-28T04:27:09.877Z,45.86
2023-03-28T04:30:13.745Z,45.79
2023-03-28T04:33:37.935Z,45.82
2023-03-28T04:36:41.329Z,45.84
2023-03-28T04:39:47.164Z,45.80
2023-03-28T04:43:22.436Z,45.84
2023-03-28T04:46:29.676Z,45.81
2023-03-28T04:49:36.450Z,45.88
2023-03-28T04:52:39.693Z,45.84
2023-03-28T04:55:44.132Z,45.89
2023-03-28T04:58:55.919Z,45.86
2023-03-28T05:02:02.745Z,45.87
2023-03-28T05:05:21.120Z,45.81
2023-03-28T05:08:26.274Z,45.80
2023-03-28T05:11:29.408Z,45.69
2023-03-28T05:14:33.519Z,45.68
2023-03-28T05:17:50.911Z,45.68
2023-03-28T05:21:08.253Z,45.63
2023-03-28T05:24:11.316Z,45.71
2023-03-28T05:27:14.265Z,45.60
2023-03-28T05:30:17.518Z,45.59
2023-03-28T05:33:20.519Z,45.65
2023-03-28T05:36:26.250Z,45.68
2023-03-28T05:39:29.354Z,45.74
2023-03-28T05:42:41.453Z,45.69
2023-03-28T05:45:48.797Z,45.65
2023-03-28T05:48:56.049Z,45.67
2023-03-28T05:52:00.437Z,45.64
2023-03-28T05:55:03.581Z,45.63
2023-03-28T05:58:07.833Z,45.59
2023-03-28T06:01:17.993Z,45.62
2023-03-28T06:04:28.011Z,45.50
2023-03-28T06:07:41.873Z,45.51
2023-03-28T06:10:46.791Z,45.50
2023-03-28T06:13:56.976Z,45.67
2023-03-28T06:17:00.318Z,45.58
2023-03-28T06:20:12.076Z,45.58
2023-03-28T06:23:16.352Z,45.51
2023-03-28T06:26:19.598Z,45.60
2023-03-28T06:29:22.525Z,45.46
2023-03-28T06:32:34.230Z,45.13
2023-03-28T06:35:38.177Z,45.07
2023-03-28T06:38:42.489Z,44.86
2023-03-28T06:41:45.566Z,44.97
2023-03-28T06:44:48.483Z,44.01
2023-03-28T06:48:03.572Z,42.15
2023-03-28T06:51:27.294Z,40.67
2023-03-28T06:54:31.993Z,40.97
2023-03-28T06:57:35.222Z,40.96
2023-03-28T07:00:48.607Z,41.13
2023-03-28T07:04:09.653Z,41.23
2023-03-28T07:07:14.487Z,41.37
2023-03-28T07:10:19.945Z,41.40
2023-03-28T07:13:23.720Z,41.43
2023-03-28T07:16:34.600Z,41.51
2023-03-28T07:19:37.622Z,41.76
2023-03-28T07:22:40.529Z,41.81
2023-03-28T07:25:44.844Z,41.75
2023-03-28T07:28:47.729Z,41.98
2023-03-28T07:31:50.759Z,42.11
2023-03-28T07:34:54.986Z,42.08
2023-03-28T07:38:02.924Z,42.16
2023-03-28T07:41:12.863Z,42.29
2023-03-28T07:44:15.851Z,42.40
2023-03-28T07:47:18.950Z,42.49
2023-03-28T07:50:24.760Z,42.75
2023-03-28T07:53:29.099Z,42.75
2023-03-28T07:56:33.758Z,42.82
2023-03-28T07:59:57.631Z,43.09
2023-03-28T08:03:01.311Z,43.13
2023-03-28T08:06:16.611Z,43.18
2023-03-28T08:09:28.011Z,43.28
2023-03-28T08:12:45.335Z,43.59
2023-03-28T08:15:53.013Z,43.57
2023-03-28T08:19:10.130Z,43.62
2023-03-28T08:22:30.774Z,43.75
2023-03-28T08:26:05.040Z,43.78
2023-03-28T08:29:09.951Z,43.87
2023-03-28T08:32:15.105Z,44.01
2023-03-28T08:35:18.593Z,43.94
2023-03-28T08:38:23.699Z,44.08
2023-03-28T08:41:42.215Z,44.06
2023-03-28T08:45:04.553Z,44.24
2023-03-28T08:48:19.075Z,44.35
2023-03-28T08:51:27.646Z,44.33
2023-03-28T08:54:38.840Z,44.32
2023-03-28T08:57:42.956Z,44.46
2023-03-28T09:00:47.742Z,44.47
2023-03-28T09:03:51.243Z,44.50
2023-03-28T09:07:04.097Z,44.54
2023-03-28T09:10:20.833Z,44.56
2023-03-28T09:13:45.167Z,44.52
2023-03-28T09:17:03.017Z,44.65
2023-03-28T09:20:19.389Z,44.67
2023-03-28T09:24:08.882Z,44.76
2023-03-28T09:27:20.666Z,44.90
2023-03-28T09:30:29.883Z,44.72
2023-03-28T09:33:37.202Z,44.81
2023-03-28T09:36:48.989Z,44.84
2023-03-28T09:39:56.464Z,44.90
2023-03-28T09:43:16.947Z,44.96
2023-03-28T09:46:42.665Z,44.92
2023-03-28T09:50:21.330Z,44.83
2023-03-28T09:53:33.139Z,44.82
2023-03-28T09:56:39.341Z,44.90
2023-03-28T10:00:07.425Z,44.87
2023-03-28T10:03:32.325Z,45.00
2023-03-28T10:06:40.155Z,44.96
2023-03-28T10:09:49.621Z,45.00
2023-03-28T10:12:58.453Z,45.05
2023-03-28T10:16:03.666Z,45.11
2023-03-28T10:19:26.378Z,44.93
2023-03-28T10:22:57.599Z,44.82
2023-03-28T10:26:04.558Z,44.68
2023-03-28T10:29:08.833Z,44.80
2023-03-28T10:32:14.723Z,44.75
2023-03-28T10:35:27.988Z,44.77
2023-03-28T10:38:50.974Z,44.78
2023-03-28T10:42:12.843Z,44.68
2023-03-28T10:45:33.190Z,44.75
2023-03-28T10:48:39.268Z,44.89
2023-03-28T10:51:47.483Z,44.94
2023-03-28T10:55:04.155Z,44.97
2023-03-28T10:58:35.127Z,44.86
2023-03-28T11:01:51.637Z,44.97
2023-03-28T11:04:59.840Z,44.92
2023-03-28T11:08:26.421Z,44.92
2023-03-28T11:11:48.042Z,44.77
2023-03-28T11:15:02.750Z,44.92
2023-03-28T11:18:27.486Z,44.72
2023-03-28T11:21:40.913Z,44.74
2023-03-28T11:24:52.796Z,44.84
2023-03-28T11:28:37.771Z,44.88
2023-03-28T11:32:10.021Z,44.83
2023-03-28T11:35:18.661Z,44.87
2023-03-28T11:38:28.660Z,44.96
2023-03-28T11:41:34.583Z,45.06
2023-03-28T11:44:57.373Z,45.05
2023-03-28T11:48:05.936Z,45.09
2023-03-28T11:51:16.057Z,44.91
2023-03-28T11:54:32.213Z,44.91
2023-03-28T11:57:40.290Z,44.91
2023-03-28T12:00:48.101Z,44.76
2023-03-28T12:04:06.150Z,44.88
2023-03-28T12:07:17.108Z,45.50
2023-03-28T12:10:25.200Z,45.64
2023-03-28T12:13:41.756Z,46.10
2023-03-28T12:16:53.278Z,45.60
2023-03-28T12:19:59.031Z,45.34
2023-03-28T12:23:09.275Z,45.13
2023-03-28T12:26:38.581Z,45.09
2023-03-28T12:29:47.042Z,44.88
2023-03-28T12:33:02.883Z,44.85
2023-03-28T12:36:18.488Z,44.77
2023-03-28T12:39:35.676Z,44.79
2023-03-28T12:42:47.372Z,44.92
2023-03-28T12:45:57.285Z,44.77
2023-03-28T12:49:05.944Z,44.73
2023-03-28T12:52:15.671Z,44.76
2023-03-28T12:55:45.514Z,44.74
2023-03-28T12:58:53.033Z,44.88
2023-03-28T13:02:12.793Z,44.88
2023-03-28T13:05:33.974Z,44.89
2023-03-28T13:08:49.550Z,44.91
2023-03-28T13:11:59.618Z,44.94
2023-03-28T13:15:23.959Z,44.89
2023-03-28T13:18:32.639Z,44.83
2023-03-28T13:21:46.155Z,44.93
2023-03-28T13:24:49.210Z,44.85
2023-03-28T13:27:54.418Z,44.92
2023-03-28T13:31:09.299Z,45.10
2023-03-28T13:34:22.844Z,44.97
2023-03-28T13:37:38.270Z,45.13
2023-03-28T13:40:46.246Z,45.14
2023-03-28T13:43:55.088Z,45.18
2023-03-28T13:46:58.288Z,45.17
2023-03-28T13:50:06.123Z,45.23
2023-03-28T13:53:10.785Z,45.26
2023-03-28T13:56:26.600Z,45.17
2023-03-28T13:59:35.077Z,45.25
2023-03-28T14:02:42.264Z,45.25
2023-03-28T14:05:47.083Z,45.26
2023-03-28T14:08:52.609Z,45.25
2023-03-28T14:11:57.656Z,45.29
2023-03-28T14:15:02.204Z,45.16
2023-03-28T14:18:08.571Z,45.17
2023-03-28T14:21:12.221Z,45.23
2023-03-28T14:24:22.963Z,45.23
2023-03-28T14:27:36.891Z,45.16
2023-03-28T14:30:41.229Z,45.13
2023-03-28T14:33:47.436Z,45.22
2023-03-28T14:37:00.936Z,45.29
2023-03-28T14:40:29.337Z,45.17
2023-03-28T14:43:32.710Z,45.19
2023-03-28T14:46:36.399Z,45.19
2023-03-28T14:49:39.446Z,45.25
2023-03-28T14:52:44.510Z,45.17
2023-03-28T14:55:51.086Z,45.19
2023-03-28T14:58:56.501Z,45.21
2023-03-28T15:02:01.819Z,45.32
2023-03-28T15:05:08.341Z,45.31
2023-03-28T15:08:25.474Z,45.32
2023-03-28T15:11:34.142Z,45.39
2023-03-28T15:14:41.249Z,45.34
2023-03-28T15:17:45.956Z,45.43
2023-03-28T15:20:52.600Z,45.35
2023-03-28T15:24:00.911Z,45.37
2023-03-28T15:27:08.704Z,45.33
2023-03-28T15:30:16.239Z,45.28
2023-03-28T15:33:22.959Z,45.39
2023-03-28T15:36:30.170Z,45.40
2023-03-28T15:39:35.290Z,45.47
2023-03-28T15:42:39.713Z,45.53
2023-03-28T15:45:44.250Z,45.43
2023-03-28T15:48:47.294Z,45.39
2023-03-28T15:51:53.722Z,45.59
2023-03-28T15:54:58.146Z,45.46
2023-03-28T15:58:04.923Z,45.55
2023-03-28T16:01:24.691Z,45.70
2023-03-28T16:04:29.051Z,40.94
2023-03-28T16:07:36.921Z,37.13
2023-03-28T16:10:40.348Z,36.87
2023-03-28T16:14:04.834Z,37.24
2023-03-28T16:17:29.861Z,37.71
2023-03-28T16:20:46.132Z,38.24
2023-03-28T16:23:49.291Z,38.52
2023-03-28T16:26:52.240Z,38.59
2023-03-28T16:29:56.817Z,38.52
2023-03-28T16:32:59.879Z,38.56
2023-03-28T16:36:03.039Z,38.80
2023-03-28T16:39:06.354Z,38.76
2023-03-28T16:42:09.411Z,39.10
2023-03-28T16:45:14.268Z,39.15
2023-03-28T16:48:17.292Z,39.36
2023-03-28T16:51:20.232Z,39.58
2023-03-28T16:54:23.335Z,39.71
2023-03-28T16:57:26.375Z,39.96
2023-03-28T17:00:30.752Z,40.06
2023-03-28T17:03:34.048Z,39.74
2023-03-28T17:06:36.913Z,39.93
2023-03-28T17:09:39.906Z,39.99
2023-03-28T17:12:43.097Z,39.96
2023-03-28T17:15:47.686Z,40.15
2023-03-28T17:18:51.233Z,39.98
2023-03-28T17:21:54.270Z,40.01
2023-03-28T17:24:57.556Z,39.89
2023-03-28T17:28:00.744Z,40.01
2023-03-28T17:31:08.119Z,40.03
2023-03-28T17:34:12.693Z,40.07
2023-03-28T17:37:15.730Z,40.03
2023-03-28T17:40:18.996Z,39.10
2023-03-28T17:43:21.939Z,38.53
2023-03-28T17:46:26.231Z,37.28
2023-03-28T17:49:29.196Z,36.62
2023-03-28T17:52:32.318Z,38.00
2023-03-28T17:55:35.514Z,37.33
2023-03-28T17:58:38.791Z,37.25
2023-03-28T18:01:43.150Z,37.13
2023-03-28T18:04:46.152Z,34.67
2023-03-28T18:07:56.599Z,34.93
2023-03-28T18:11:01.923Z,35.24
2023-03-28T18:14:04.829Z,35.77
2023-03-28T18:17:09.458Z,36.24
2023-03-28T18:20:13.271Z,36.53
2023-03-28T18:23:16.316Z,36.89
2023-03-28T18:26:19.342Z,37.17
2023-03-28T18:29:22.392Z,37.42
2023-03-28T18:32:26.781Z,37.72
2023-03-28T18:35:30.464Z,37.84
2023-03-28T18:38:38.206Z,37.98
2023-03-28T18:41:41.148Z,38.23
2023-03-28T18:44:44.019Z,38.36
2023-03-28T18:47:48.342Z,38.65
2023-03-28T18:50:51.558Z,38.80
2023-03-28T18:53:55.009Z,38.97
2023-03-28T18:56:58.273Z,39.05
2023-03-28T19:00:01.211Z,39.23
2023-03-28T19:03:09.103Z,39.35
2023-03-28T19:06:13.579Z,39.46
2023-03-28T19:09:16.970Z,39.50
2023-03-28T19:12:19.896Z,39.75
2023-03-28T19:15:22.861Z,39.90
2023-03-28T19:18:27.448Z,40.07
2023-03-28T19:21:30.809Z,40.00
2023-03-28T19:24:34.340Z,40.20
2023-03-28T19:27:37.740Z,40.27
2023-03-28T19:30:40.783Z,40.31
2023-03-28T19:33:45.144Z,40.45
2023-03-28T19:36:48.467Z,40.53
2023-03-28T19:39:51.544Z,40.52
2023-03-28T19:42:54.510Z,40.61
2023-03-28T19:46:02.646Z,40.83
2023-03-28T19:49:08.044Z,40.87
2023-03-28T19:52:11.014Z,40.93
2023-03-28T19:55:14.049Z,41.02
2023-03-28T19:58:17.475Z,41.04
2023-03-28T20:01:20.814Z,41.05
2023-03-28T20:04:27.618Z,41.29
2023-03-28T20:07:30.565Z,41.41
2023-03-28T20:10:33.646Z,41.35
2023-03-28T20:13:36.740Z,41.46
2023-03-28T20:16:39.961Z,41.54
2023-03-28T20:19:44.211Z,41.60
2023-03-28T20:22:47.135Z,41.62
2023-03-28T20:25:50.768Z,41.64
2023-03-28T20:28:56.933Z,41.57
2023-03-28T20:32:00.639Z,41.54
2023-03-28T20:35:06.267Z,41.59
2023-03-28T20:38:09.653Z,41.50
2023-03-28T20:41:13.084Z,41.55
2023-03-28T20:44:16.570Z,41.48
2023-03-28T20:47:25.136Z,41.69
2023-03-28T20:50:33.676Z,41.66
2023-03-28T20:53:36.679Z,41.73
2023-03-28T20:56:39.625Z,41.76
2023-03-28T20:59:42.693Z,41.84
2023-03-28T21:02:53.494Z,41.89
2023-03-28T21:05:57.889Z,41.84
2023-03-28T21:09:02.187Z,41.90
2023-03-28T21:12:05.368Z,41.87
2023-03-28T21:15:10.134Z,41.81
2023-03-28T21:18:13.125Z,41.82
2023-03-28T21:21:19.339Z,41.80
2023-03-28T21:24:22.505Z,41.91
2023-03-28T21:27:25.522Z,41.73
2023-03-28T21:30:28.537Z,41.58
2023-03-28T21:33:32.182Z,41.48
2023-03-28T21:36:36.550Z,41.66
2023-03-28T21:39:39.873Z,41.76
2023-03-28T21:42:42.791Z,41.78
2023-03-28T21:45:46.248Z,41.72
2023-03-28T21:48:50.049Z,41.87
2023-03-28T21:51:54.350Z,41.93
2023-03-28T21:54:57.289Z,41.89
2023-03-28T21:58:00.511Z,41.92
2023-03-28T22:01:04.869Z,41.98
2023-03-28T22:04:08.113Z,41.96
2023-03-28T22:07:12.363Z,42.03
2023-03-28T22:10:15.546Z,41.97
2023-03-28T22:13:18.513Z,41.98
2023-03-28T22:16:21.763Z,42.06
2023-03-28T22:19:25.257Z,42.05
2023-03-28T22:22:29.774Z,42.08
2023-03-28T22:25:34.882Z,42.16
2023-03-28T22:28:38.301Z,42.10
2023-03-28T22:31:42.019Z,41.72
2023-03-28T22:34:45.083Z,41.73
2023-03-28T22:37:49.352Z,41.77
2023-03-28T22:40:52.252Z,41.73
2023-03-28T22:43:55.122Z,41.71
2023-03-28T22:47:02.308Z,41.51
2023-03-28T22:50:07.772Z,41.47
2023-03-28T22:53:14.232Z,41.49
2023-03-28T22:56:17.235Z,41.45
2023-03-28T22:59:20.119Z,41.50
2023-03-28T23:02:23.148Z,41.43
2023-03-28T23:05:26.092Z,41.50
2023-03-28T23:08:31.107Z,41.47
2023-03-28T23:11:34.053Z,41.34
2023-03-28T23:14:36.988Z,41.47
2023-03-28T23:17:40.193Z,41.45
2023-03-28T23:20:43.697Z,41.53
2023-03-28T23:23:48.277Z,41.56
2023-03-28T23:26:51.338Z,41.46
2023-03-28T23:29:54.227Z,41.46
2023-03-28T23:32:57.273Z,41.55
2023-03-28T23:36:00.254Z,41.51
2023-03-28T23:39:05.277Z,41.50
2023-03-28T23:42:08.184Z,41.54
2023-03-28T23:45:12.074Z,41.61
2023-03-28T23:48:14.958Z,41.60
2023-03-28T23:51:18.023Z,41.65
2023-03-28T23:54:22.349Z,41.57
2023-03-28T23:57:28.464Z,41.66
